sensor_id;sensor_type;location;lat;lon;timestamp;P1;durP1;ratioP1;P2;durP2;ratioP2
37529;SDS011;23374;52.758;6.872;2023-02-03T00:00:10;9.43;;;1.57;;
37529;SDS011;23374;52.758;6.872;2023-02-03T00:02:31;5.43;;;1.70;;
37529;SDS011;23374;52.758;6.872;2023-02-03T00:04:52;5.13;;;1.60;;
37529;SDS011;23374;52.758;6.872;2023-02-03T00:07:12;2.20;;;1.10;;
37529;SDS011;23374;52.758;6.872;2023-02-03T00:09:34;7.77;;;2.33;;
37529;SDS011;23374;52.758;6.872;2023-02-03T00:11:55;7.90;;;1.70;;
37529;SDS011;23374;52.758;6.872;2023-02-03T00:14:16;1.73;;;1.00;;
37529;SDS011;23374;52.758;6.872;2023-02-03T00:16:36;5.10;;;1.50;;
37529;SDS011;23374;52.758;6.872;2023-02-03T00:18:57;4.60;;;1.50;;
37529;SDS011;23374;52.758;6.872;2023-02-03T00:21:17;4.00;;;1.40;;
37529;SDS011;23374;52.758;6.872;2023-02-03T00:23:39;4.70;;;1.27;;
37529;SDS011;23374;52.758;6.872;2023-02-03T00:26:13;3.50;;;1.43;;
37529;SDS011;23374;52.758;6.872;2023-02-03T00:28:35;5.83;;;1.03;;
37529;SDS011;23374;52.758;6.872;2023-02-03T00:30:55;2.53;;;1.17;;
37529;SDS011;23374;52.758;6.872;2023-02-03T00:33:15;5.77;;;1.50;;
37529;SDS011;23374;52.758;6.872;2023-02-03T00:35:39;5.17;;;1.30;;
37529;SDS011;23374;52.758;6.872;2023-02-03T00:37:59;2.70;;;1.00;;
37529;SDS011;23374;52.758;6.872;2023-02-03T00:41:27;2.67;;;1.00;;
37529;SDS011;23374;52.758;6.872;2023-02-03T00:43:53;3.20;;;1.03;;
37529;SDS011;23374;52.758;6.872;2023-02-03T00:46:13;4.37;;;1.23;;
37529;SDS011;23374;52.758;6.872;2023-02-03T00:48:34;1.43;;;1.00;;
37529;SDS011;23374;52.758;6.872;2023-02-03T00:50:54;2.97;;;1.40;;
37529;SDS011;23374;52.758;6.872;2023-02-03T00:53:14;3.87;;;1.33;;
37529;SDS011;23374;52.758;6.872;2023-02-03T00:55:35;6.30;;;1.73;;
37529;SDS011;23374;52.758;6.872;2023-02-03T00:57:55;4.83;;;1.77;;
37529;SDS011;23374;52.758;6.872;2023-02-03T01:00:17;5.20;;;2.00;;
37529;SDS011;23374;52.758;6.872;2023-02-03T01:02:38;8.20;;;1.60;;
37529;SDS011;23374;52.758;6.872;2023-02-03T01:04:59;7.17;;;1.70;;
37529;SDS011;23374;52.758;6.872;2023-02-03T01:07:19;3.17;;;1.47;;
37529;SDS011;23374;52.758;6.872;2023-02-03T01:09:40;3.17;;;1.10;;
37529;SDS011;23374;52.758;6.872;2023-02-03T01:12:00;3.97;;;1.33;;
37529;SDS011;23374;52.758;6.872;2023-02-03T01:14:22;6.10;;;2.17;;
37529;SDS011;23374;52.758;6.872;2023-02-03T01:16:42;4.73;;;1.70;;
37529;SDS011;23374;52.758;6.872;2023-02-03T01:19:03;5.90;;;2.03;;
37529;SDS011;23374;52.758;6.872;2023-02-03T01:21:24;3.80;;;1.50;;
37529;SDS011;23374;52.758;6.872;2023-02-03T01:23:45;5.77;;;1.70;;
37529;SDS011;23374;52.758;6.872;2023-02-03T01:26:08;5.33;;;1.40;;
37529;SDS011;23374;52.758;6.872;2023-02-03T01:28:32;9.20;;;1.97;;
37529;SDS011;23374;52.758;6.872;2023-02-03T01:30:52;8.10;;;1.80;;
37529;SDS011;23374;52.758;6.872;2023-02-03T01:33:12;4.90;;;2.00;;
37529;SDS011;23374;52.758;6.872;2023-02-03T01:35:33;8.90;;;1.93;;
37529;SDS011;23374;52.758;6.872;2023-02-03T01:37:54;3.03;;;1.60;;
37529;SDS011;23374;52.758;6.872;2023-02-03T01:41:34;6.30;;;1.77;;
37529;SDS011;23374;52.758;6.872;2023-02-03T01:43:57;6.97;;;1.77;;
37529;SDS011;23374;52.758;6.872;2023-02-03T01:46:40;4.47;;;1.30;;
37529;SDS011;23374;52.758;6.872;2023-02-03T01:49:10;5.80;;;1.73;;
37529;SDS011;23374;52.758;6.872;2023-02-03T01:51:41;4.37;;;1.47;;
37529;SDS011;23374;52.758;6.872;2023-02-03T01:54:03;3.13;;;1.40;;
37529;SDS011;23374;52.758;6.872;2023-02-03T01:56:27;7.00;;;1.53;;
37529;SDS011;23374;52.758;6.872;2023-02-03T01:58:51;7.50;;;2.03;;
37529;SDS011;23374;52.758;6.872;2023-02-03T02:01:12;3.60;;;1.60;;
37529;SDS011;23374;52.758;6.872;2023-02-03T02:03:48;6.37;;;1.40;;
37529;SDS011;23374;52.758;6.872;2023-02-03T02:06:14;6.50;;;1.70;;
37529;SDS011;23374;52.758;6.872;2023-02-03T02:08:35;3.80;;;1.43;;
37529;SDS011;23374;52.758;6.872;2023-02-03T02:11:00;4.90;;;1.80;;
37529;SDS011;23374;52.758;6.872;2023-02-03T02:13:21;6.63;;;2.20;;
37529;SDS011;23374;52.758;6.872;2023-02-03T02:15:50;6.50;;;1.47;;
37529;SDS011;23374;52.758;6.872;2023-02-03T02:41:38;9.30;;;1.50;;
37529;SDS011;23374;52.758;6.872;2023-02-03T02:45:36;4.90;;;1.67;;
37529;SDS011;23374;52.758;6.872;2023-02-03T02:48:07;7.33;;;1.63;;
37529;SDS011;23374;52.758;6.872;2023-02-03T02:50:39;7.30;;;1.73;;
37529;SDS011;23374;52.758;6.872;2023-02-03T02:53:02;7.93;;;1.67;;
37529;SDS011;23374;52.758;6.872;2023-02-03T02:55:29;4.20;;;0.73;;
37529;SDS011;23374;52.758;6.872;2023-02-03T02:57:53;3.00;;;1.20;;
37529;SDS011;23374;52.758;6.872;2023-02-03T03:00:22;6.60;;;1.70;;
37529;SDS011;23374;52.758;6.872;2023-02-03T03:02:43;5.47;;;1.63;;
37529;SDS011;23374;52.758;6.872;2023-02-03T03:05:04;2.63;;;0.80;;
37529;SDS011;23374;52.758;6.872;2023-02-03T03:07:28;7.23;;;1.23;;
37529;SDS011;23374;52.758;6.872;2023-02-03T03:09:53;8.23;;;1.37;;
37529;SDS011;23374;52.758;6.872;2023-02-03T03:12:21;3.53;;;0.90;;
37529;SDS011;23374;52.758;6.872;2023-02-03T03:14:51;3.43;;;0.83;;
37529;SDS011;23374;52.758;6.872;2023-02-03T03:17:22;5.50;;;1.50;;
37529;SDS011;23374;52.758;6.872;2023-02-03T03:19:49;4.03;;;0.87;;
37529;SDS011;23374;52.758;6.872;2023-02-03T03:22:14;8.53;;;1.77;;
37529;SDS011;23374;52.758;6.872;2023-02-03T03:24:47;6.17;;;2.03;;
37529;SDS011;23374;52.758;6.872;2023-02-03T03:27:16;3.43;;;1.33;;
37529;SDS011;23374;52.758;6.872;2023-02-03T03:29:52;5.90;;;1.20;;
37529;SDS011;23374;52.758;6.872;2023-02-03T03:32:19;6.10;;;1.37;;
37529;SDS011;23374;52.758;6.872;2023-02-03T03:34:40;7.37;;;1.37;;
37529;SDS011;23374;52.758;6.872;2023-02-03T03:37:07;5.37;;;1.03;;
37529;SDS011;23374;52.758;6.872;2023-02-03T03:42:31;5.17;;;1.10;;
37529;SDS011;23374;52.758;6.872;2023-02-03T03:45:09;4.73;;;1.23;;
37529;SDS011;23374;52.758;6.872;2023-02-03T03:48:00;4.47;;;1.27;;
37529;SDS011;23374;52.758;6.872;2023-02-03T03:53:15;4.50;;;1.27;;
37529;SDS011;23374;52.758;6.872;2023-02-03T03:55:37;2.37;;;0.83;;
37529;SDS011;23374;52.758;6.872;2023-02-03T03:58:03;6.73;;;1.20;;
37529;SDS011;23374;52.758;6.872;2023-02-03T04:00:34;2.70;;;0.90;;
37529;SDS011;23374;52.758;6.872;2023-02-03T04:02:59;2.37;;;0.90;;
37529;SDS011;23374;52.758;6.872;2023-02-03T04:06:08;2.60;;;1.00;;
37529;SDS011;23374;52.758;6.872;2023-02-03T04:08:28;8.60;;;2.03;;
37529;SDS011;23374;52.758;6.872;2023-02-03T04:10:48;3.53;;;1.03;;
37529;SDS011;23374;52.758;6.872;2023-02-03T04:13:09;2.50;;;1.20;;
37529;SDS011;23374;52.758;6.872;2023-02-03T04:15:30;3.17;;;1.20;;
37529;SDS011;23374;52.758;6.872;2023-02-03T04:17:51;9.53;;;1.50;;
37529;SDS011;23374;52.758;6.872;2023-02-03T04:20:13;1.80;;;0.63;;
37529;SDS011;23374;52.758;6.872;2023-02-03T04:22:34;4.73;;;1.13;;
37529;SDS011;23374;52.758;6.872;2023-02-03T04:24:55;5.40;;;1.00;;
37529;SDS011;23374;52.758;6.872;2023-02-03T04:27:17;6.23;;;1.07;;
37529;SDS011;23374;52.758;6.872;2023-02-03T04:29:38;3.83;;;1.37;;
37529;SDS011;23374;52.758;6.872;2023-02-03T04:31:58;5.93;;;1.47;;
37529;SDS011;23374;52.758;6.872;2023-02-03T04:34:19;7.83;;;1.10;;
37529;SDS011;23374;52.758;6.872;2023-02-03T04:36:39;2.07;;;0.93;;
37529;SDS011;23374;52.758;6.872;2023-02-03T04:39:00;3.23;;;1.00;;
37529;SDS011;23374;52.758;6.872;2023-02-03T04:41:44;3.17;;;1.20;;
37529;SDS011;23374;52.758;6.872;2023-02-03T04:44:04;6.30;;;0.93;;
37529;SDS011;23374;52.758;6.872;2023-02-03T04:46:24;4.63;;;1.27;;
37529;SDS011;23374;52.758;6.872;2023-02-03T04:48:44;6.20;;;1.10;;
37529;SDS011;23374;52.758;6.872;2023-02-03T04:51:06;5.40;;;1.07;;
37529;SDS011;23374;52.758;6.872;2023-02-03T04:53:28;0.80;;;0.57;;
37529;SDS011;23374;52.758;6.872;2023-02-03T04:55:49;1.10;;;0.70;;
37529;SDS011;23374;52.758;6.872;2023-02-03T04:58:09;4.57;;;1.57;;
37529;SDS011;23374;52.758;6.872;2023-02-03T05:00:30;2.80;;;0.83;;
37529;SDS011;23374;52.758;6.872;2023-02-03T05:02:50;3.17;;;1.03;;
37529;SDS011;23374;52.758;6.872;2023-02-03T05:05:11;3.20;;;1.23;;
37529;SDS011;23374;52.758;6.872;2023-02-03T05:07:31;17.47;;;1.07;;
37529;SDS011;23374;52.758;6.872;2023-02-03T05:09:51;7.10;;;1.67;;
37529;SDS011;23374;52.758;6.872;2023-02-03T05:12:11;4.97;;;1.40;;
37529;SDS011;23374;52.758;6.872;2023-02-03T05:14:31;4.00;;;1.17;;
37529;SDS011;23374;52.758;6.872;2023-02-03T05:16:51;5.30;;;1.30;;
37529;SDS011;23374;52.758;6.872;2023-02-03T05:19:12;3.37;;;1.27;;
37529;SDS011;23374;52.758;6.872;2023-02-03T05:21:32;4.23;;;1.10;;
37529;SDS011;23374;52.758;6.872;2023-02-03T05:23:53;8.43;;;1.53;;
37529;SDS011;23374;52.758;6.872;2023-02-03T05:26:13;2.07;;;1.10;;
37529;SDS011;23374;52.758;6.872;2023-02-03T05:28:34;5.47;;;1.20;;
37529;SDS011;23374;52.758;6.872;2023-02-03T05:30:57;4.23;;;1.47;;
37529;SDS011;23374;52.758;6.872;2023-02-03T05:33:18;3.07;;;0.80;;
37529;SDS011;23374;52.758;6.872;2023-02-03T05:35:38;6.17;;;1.43;;
37529;SDS011;23374;52.758;6.872;2023-02-03T05:37:58;8.17;;;1.73;;
37529;SDS011;23374;52.758;6.872;2023-02-03T05:41:49;9.20;;;1.10;;
37529;SDS011;23374;52.758;6.872;2023-02-03T05:44:12;1.83;;;0.80;;
37529;SDS011;23374;52.758;6.872;2023-02-03T05:46:33;5.70;;;1.70;;
37529;SDS011;23374;52.758;6.872;2023-02-03T05:48:53;4.80;;;1.03;;
37529;SDS011;23374;52.758;6.872;2023-02-03T05:51:13;1.47;;;1.07;;
37529;SDS011;23374;52.758;6.872;2023-02-03T05:53:33;2.63;;;1.00;;
37529;SDS011;23374;52.758;6.872;2023-02-03T05:55:53;5.90;;;1.00;;
37529;SDS011;23374;52.758;6.872;2023-02-03T05:58:14;5.17;;;1.23;;
37529;SDS011;23374;52.758;6.872;2023-02-03T06:00:34;1.77;;;1.03;;
37529;SDS011;23374;52.758;6.872;2023-02-03T06:02:58;6.30;;;1.10;;
37529;SDS011;23374;52.758;6.872;2023-02-03T06:05:24;4.87;;;1.20;;
37529;SDS011;23374;52.758;6.872;2023-02-03T06:07:45;5.03;;;1.10;;
37529;SDS011;23374;52.758;6.872;2023-02-03T06:10:06;4.53;;;1.20;;
37529;SDS011;23374;52.758;6.872;2023-02-03T06:12:27;5.83;;;1.30;;
37529;SDS011;23374;52.758;6.872;2023-02-03T06:14:47;2.83;;;1.03;;
37529;SDS011;23374;52.758;6.872;2023-02-03T06:17:07;4.47;;;1.27;;
37529;SDS011;23374;52.758;6.872;2023-02-03T06:19:27;4.07;;;0.97;;
37529;SDS011;23374;52.758;6.872;2023-02-03T06:21:48;4.13;;;1.43;;
37529;SDS011;23374;52.758;6.872;2023-02-03T06:24:09;6.43;;;1.43;;
37529;SDS011;23374;52.758;6.872;2023-02-03T06:26:30;4.47;;;1.27;;
37529;SDS011;23374;52.758;6.872;2023-02-03T06:28:50;4.93;;;1.20;;
37529;SDS011;23374;52.758;6.872;2023-02-03T06:31:10;5.60;;;1.27;;
37529;SDS011;23374;52.758;6.872;2023-02-03T06:33:31;7.50;;;1.50;;
37529;SDS011;23374;52.758;6.872;2023-02-03T06:35:53;4.87;;;1.13;;
37529;SDS011;23374;52.758;6.872;2023-02-03T06:38:14;2.77;;;1.00;;
37529;SDS011;23374;52.758;6.872;2023-02-03T06:40:34;5.20;;;1.73;;
37529;SDS011;23374;52.758;6.872;2023-02-03T06:43:07;4.20;;;1.50;;
37529;SDS011;23374;52.758;6.872;2023-02-03T06:45:27;1.80;;;1.13;;
37529;SDS011;23374;52.758;6.872;2023-02-03T06:47:48;6.37;;;1.47;;
37529;SDS011;23374;52.758;6.872;2023-02-03T06:50:10;3.60;;;1.10;;
37529;SDS011;23374;52.758;6.872;2023-02-03T06:52:32;4.60;;;1.00;;
37529;SDS011;23374;52.758;6.872;2023-02-03T06:54:52;6.90;;;1.30;;
37529;SDS011;23374;52.758;6.872;2023-02-03T06:57:12;5.53;;;1.00;;
37529;SDS011;23374;52.758;6.872;2023-02-03T06:59:33;4.00;;;1.07;;
37529;SDS011;23374;52.758;6.872;2023-02-03T07:01:53;4.50;;;1.60;;
37529;SDS011;23374;52.758;6.872;2023-02-03T07:04:14;7.67;;;1.53;;
37529;SDS011;23374;52.758;6.872;2023-02-03T07:06:34;9.03;;;1.53;;
37529;SDS011;23374;52.758;6.872;2023-02-03T07:08:55;6.43;;;1.40;;
37529;SDS011;23374;52.758;6.872;2023-02-03T07:11:16;7.20;;;1.60;;
37529;SDS011;23374;52.758;6.872;2023-02-03T07:13:37;4.83;;;1.30;;
37529;SDS011;23374;52.758;6.872;2023-02-03T07:15:57;5.17;;;1.70;;
37529;SDS011;23374;52.758;6.872;2023-02-03T07:18:17;1.60;;;1.17;;
37529;SDS011;23374;52.758;6.872;2023-02-03T07:20:42;6.00;;;1.07;;
37529;SDS011;23374;52.758;6.872;2023-02-03T07:23:02;5.80;;;1.53;;
37529;SDS011;23374;52.758;6.872;2023-02-03T07:25:23;4.80;;;1.50;;
37529;SDS011;23374;52.758;6.872;2023-02-03T07:27:44;4.13;;;1.23;;
37529;SDS011;23374;52.758;6.872;2023-02-03T07:30:05;6.83;;;1.37;;
37529;SDS011;23374;52.758;6.872;2023-02-03T07:32:26;4.43;;;1.67;;
37529;SDS011;23374;52.758;6.872;2023-02-03T07:34:47;4.80;;;1.80;;
37529;SDS011;23374;52.758;6.872;2023-02-03T07:37:07;5.10;;;1.30;;
37529;SDS011;23374;52.758;6.872;2023-02-03T07:39:28;5.37;;;1.50;;
37529;SDS011;23374;52.758;6.872;2023-02-03T07:41:48;3.90;;;1.53;;
37529;SDS011;23374;52.758;6.872;2023-02-03T07:44:09;4.47;;;1.10;;
37529;SDS011;23374;52.758;6.872;2023-02-03T07:46:29;6.60;;;2.07;;
37529;SDS011;23374;52.758;6.872;2023-02-03T07:48:50;8.73;;;1.90;;
37529;SDS011;23374;52.758;6.872;2023-02-03T07:51:10;3.70;;;1.30;;
37529;SDS011;23374;52.758;6.872;2023-02-03T07:53:30;5.67;;;1.47;;
37529;SDS011;23374;52.758;6.872;2023-02-03T07:55:51;5.83;;;2.10;;
37529;SDS011;23374;52.758;6.872;2023-02-03T07:58:11;7.83;;;2.10;;
37529;SDS011;23374;52.758;6.872;2023-02-03T08:00:32;4.10;;;1.63;;
37529;SDS011;23374;52.758;6.872;2023-02-03T08:02:52;8.23;;;1.50;;
37529;SDS011;23374;52.758;6.872;2023-02-03T08:05:14;7.70;;;1.80;;
37529;SDS011;23374;52.758;6.872;2023-02-03T08:07:35;4.00;;;1.33;;
37529;SDS011;23374;52.758;6.872;2023-02-03T08:09:56;3.50;;;1.23;;
37529;SDS011;23374;52.758;6.872;2023-02-03T08:12:16;2.93;;;0.87;;
37529;SDS011;23374;52.758;6.872;2023-02-03T08:14:36;7.00;;;2.13;;
37529;SDS011;23374;52.758;6.872;2023-02-03T08:16:56;7.80;;;1.33;;
37529;SDS011;23374;52.758;6.872;2023-02-03T08:19:17;7.50;;;1.50;;
37529;SDS011;23374;52.758;6.872;2023-02-03T08:21:37;4.67;;;1.60;;
37529;SDS011;23374;52.758;6.872;2023-02-03T08:23:57;5.23;;;1.40;;
37529;SDS011;23374;52.758;6.872;2023-02-03T08:26:17;6.97;;;1.63;;
37529;SDS011;23374;52.758;6.872;2023-02-03T08:28:38;9.40;;;1.80;;
37529;SDS011;23374;52.758;6.872;2023-02-03T08:30:58;6.77;;;1.37;;
37529;SDS011;23374;52.758;6.872;2023-02-03T08:33:19;3.27;;;1.20;;
37529;SDS011;23374;52.758;6.872;2023-02-03T08:35:39;8.57;;;1.90;;
37529;SDS011;23374;52.758;6.872;2023-02-03T08:37:59;2.60;;;1.37;;
37529;SDS011;23374;52.758;6.872;2023-02-03T08:40:20;7.33;;;2.00;;
37529;SDS011;23374;52.758;6.872;2023-02-03T08:42:40;4.97;;;1.50;;
37529;SDS011;23374;52.758;6.872;2023-02-03T08:45:01;6.30;;;1.60;;
37529;SDS011;23374;52.758;6.872;2023-02-03T08:47:22;7.80;;;1.70;;
37529;SDS011;23374;52.758;6.872;2023-02-03T08:49:42;5.13;;;1.60;;
37529;SDS011;23374;52.758;6.872;2023-02-03T08:52:03;2.87;;;1.13;;
37529;SDS011;23374;52.758;6.872;2023-02-03T08:54:25;9.50;;;1.83;;
37529;SDS011;23374;52.758;6.872;2023-02-03T08:56:46;5.67;;;1.63;;
37529;SDS011;23374;52.758;6.872;2023-02-03T08:59:07;4.10;;;1.03;;
37529;SDS011;23374;52.758;6.872;2023-02-03T09:01:27;4.37;;;1.10;;
37529;SDS011;23374;52.758;6.872;2023-02-03T09:03:47;1.77;;;1.33;;
37529;SDS011;23374;52.758;6.872;2023-02-03T09:06:09;6.93;;;1.77;;
37529;SDS011;23374;52.758;6.872;2023-02-03T09:08:35;5.90;;;1.80;;
37529;SDS011;23374;52.758;6.872;2023-02-03T09:10:55;6.53;;;1.60;;
37529;SDS011;23374;52.758;6.872;2023-02-03T09:13:16;7.40;;;1.60;;
37529;SDS011;23374;52.758;6.872;2023-02-03T09:15:36;2.27;;;0.97;;
37529;SDS011;23374;52.758;6.872;2023-02-03T09:17:56;7.43;;;2.17;;
37529;SDS011;23374;52.758;6.872;2023-02-03T09:20:17;7.20;;;1.53;;
37529;SDS011;23374;52.758;6.872;2023-02-03T09:22:38;10.63;;;2.17;;
37529;SDS011;23374;52.758;6.872;2023-02-03T09:24:58;5.20;;;1.30;;
37529;SDS011;23374;52.758;6.872;2023-02-03T09:27:20;3.30;;;0.97;;
37529;SDS011;23374;52.758;6.872;2023-02-03T09:29:40;8.67;;;1.60;;
37529;SDS011;23374;52.758;6.872;2023-02-03T09:32:00;7.87;;;1.60;;
37529;SDS011;23374;52.758;6.872;2023-02-03T09:34:25;7.20;;;1.43;;
37529;SDS011;23374;52.758;6.872;2023-02-03T09:36:46;6.73;;;2.00;;
37529;SDS011;23374;52.758;6.872;2023-02-03T09:39:07;8.20;;;1.50;;
37529;SDS011;23374;52.758;6.872;2023-02-03T09:42:25;13.27;;;2.03;;
37529;SDS011;23374;52.758;6.872;2023-02-03T09:45:21;7.07;;;1.67;;
37529;SDS011;23374;52.758;6.872;2023-02-03T09:47:45;10.23;;;1.93;;
37529;SDS011;23374;52.758;6.872;2023-02-03T09:50:17;7.80;;;1.67;;
37529;SDS011;23374;52.758;6.872;2023-02-03T09:52:41;4.50;;;1.20;;
37529;SDS011;23374;52.758;6.872;2023-02-03T09:55:38;10.50;;;1.50;;
37529;SDS011;23374;52.758;6.872;2023-02-03T09:58:10;5.33;;;1.00;;
37529;SDS011;23374;52.758;6.872;2023-02-03T10:01:37;8.00;;;2.27;;
37529;SDS011;23374;52.758;6.872;2023-02-03T10:07:13;12.30;;;2.60;;
37529;SDS011;23374;52.758;6.872;2023-02-03T10:10:10;11.40;;;1.97;;
37529;SDS011;23374;52.758;6.872;2023-02-03T10:20:21;11.23;;;1.77;;
37529;SDS011;23374;52.758;6.872;2023-02-03T10:22:50;7.83;;;1.77;;
37529;SDS011;23374;52.758;6.872;2023-02-03T10:25:56;18.00;;;2.67;;
37529;SDS011;23374;52.758;6.872;2023-02-03T10:28:26;13.83;;;2.13;;
37529;SDS011;23374;52.758;6.872;2023-02-03T10:30:57;8.33;;;1.83;;
37529;SDS011;23374;52.758;6.872;2023-02-03T10:33:19;8.00;;;2.10;;
37529;SDS011;23374;52.758;6.872;2023-02-03T10:35:51;9.77;;;2.53;;
37529;SDS011;23374;52.758;6.872;2023-02-03T10:40:00;9.43;;;2.30;;
37529;SDS011;23374;52.758;6.872;2023-02-03T10:42:22;10.57;;;2.30;;
37529;SDS011;23374;52.758;6.872;2023-02-03T10:44:52;8.17;;;1.33;;
37529;SDS011;23374;52.758;6.872;2023-02-03T10:47:52;9.47;;;2.33;;
37529;SDS011;23374;52.758;6.872;2023-02-03T10:50:17;9.97;;;2.50;;
37529;SDS011;23374;52.758;6.872;2023-02-03T10:52:39;10.07;;;2.63;;
37529;SDS011;23374;52.758;6.872;2023-02-03T10:55:13;7.83;;;2.03;;
37529;SDS011;23374;52.758;6.872;2023-02-03T10:57:50;9.37;;;2.10;;
37529;SDS011;23374;52.758;6.872;2023-02-03T11:00:32;11.17;;;2.30;;
37529;SDS011;23374;52.758;6.872;2023-02-03T11:03:28;11.57;;;2.70;;
37529;SDS011;23374;52.758;6.872;2023-02-03T11:06:12;9.40;;;1.70;;
37529;SDS011;23374;52.758;6.872;2023-02-03T11:08:36;7.33;;;1.50;;
37529;SDS011;23374;52.758;6.872;2023-02-03T11:11:03;13.37;;;2.57;;
37529;SDS011;23374;52.758;6.872;2023-02-03T11:13:25;19.97;;;2.13;;
37529;SDS011;23374;52.758;6.872;2023-02-03T11:16:05;8.90;;;2.43;;
37529;SDS011;23374;52.758;6.872;2023-02-03T11:18:54;15.23;;;2.73;;
37529;SDS011;23374;52.758;6.872;2023-02-03T11:21:31;15.43;;;2.40;;
37529;SDS011;23374;52.758;6.872;2023-02-03T11:27:14;10.43;;;2.07;;
37529;SDS011;23374;52.758;6.872;2023-02-03T11:29:45;14.50;;;2.93;;
37529;SDS011;23374;52.758;6.872;2023-02-03T11:32:20;20.43;;;2.37;;
37529;SDS011;23374;52.758;6.872;2023-02-03T11:34:59;16.93;;;3.17;;
37529;SDS011;23374;52.758;6.872;2023-02-03T11:37:42;14.10;;;2.23;;
37529;SDS011;23374;52.758;6.872;2023-02-03T11:40:46;11.63;;;2.63;;
37529;SDS011;23374;52.758;6.872;2023-02-03T11:43:21;15.83;;;2.77;;
37529;SDS011;23374;52.758;6.872;2023-02-03T11:45:44;10.97;;;2.40;;
37529;SDS011;23374;52.758;6.872;2023-02-03T11:55:15;21.73;;;3.20;;
37529;SDS011;23374;52.758;6.872;2023-02-03T12:14:19;12.10;;;2.40;;
37529;SDS011;23374;52.758;6.872;2023-02-03T12:18:13;10.83;;;2.37;;
37529;SDS011;23374;52.758;6.872;2023-02-03T12:29:03;14.73;;;2.47;;
37529;SDS011;23374;52.758;6.872;2023-02-03T12:31:55;16.20;;;3.17;;
37529;SDS011;23374;52.758;6.872;2023-02-03T12:35:52;14.50;;;3.17;;
37529;SDS011;23374;52.758;6.872;2023-02-03T12:42:38;11.73;;;2.17;;
37529;SDS011;23374;52.758;6.872;2023-02-03T12:45:11;12.17;;;2.50;;
37529;SDS011;23374;52.758;6.872;2023-02-03T12:48:12;12.80;;;2.37;;
37529;SDS011;23374;52.758;6.872;2023-02-03T12:50:50;22.07;;;2.20;;
37529;SDS011;23374;52.758;6.872;2023-02-03T12:53:34;12.20;;;2.17;;
37529;SDS011;23374;52.758;6.872;2023-02-03T12:56:10;23.27;;;3.60;;
37529;SDS011;23374;52.758;6.872;2023-02-03T13:02:16;15.40;;;2.43;;
37529;SDS011;23374;52.758;6.872;2023-02-03T13:04:52;15.43;;;2.60;;
37529;SDS011;23374;52.758;6.872;2023-02-03T13:07:45;14.60;;;2.63;;
37529;SDS011;23374;52.758;6.872;2023-02-03T13:10:37;12.10;;;2.60;;
37529;SDS011;23374;52.758;6.872;2023-02-03T13:13:11;13.30;;;2.33;;
37529;SDS011;23374;52.758;6.872;2023-02-03T13:15:39;17.50;;;2.43;;
37529;SDS011;23374;52.758;6.872;2023-02-03T13:18:33;16.23;;;2.90;;
37529;SDS011;23374;52.758;6.872;2023-02-03T13:20:56;12.33;;;2.50;;
37529;SDS011;23374;52.758;6.872;2023-02-03T13:23:17;12.50;;;2.93;;
37529;SDS011;23374;52.758;6.872;2023-02-03T13:28:57;14.77;;;2.57;;
37529;SDS011;23374;52.758;6.872;2023-02-03T13:47:46;10.83;;;2.37;;
37529;SDS011;23374;52.758;6.872;2023-02-03T13:50:18;21.10;;;2.43;;
37529;SDS011;23374;52.758;6.872;2023-02-03T13:52:54;11.80;;;2.40;;
37529;SDS011;23374;52.758;6.872;2023-02-03T13:55:38;17.13;;;2.63;;
37529;SDS011;23374;52.758;6.872;2023-02-03T13:58:05;19.10;;;3.20;;
37529;SDS011;23374;52.758;6.872;2023-02-03T14:01:29;16.00;;;2.40;;
37529;SDS011;23374;52.758;6.872;2023-02-03T14:03:58;14.33;;;2.73;;
37529;SDS011;23374;52.758;6.872;2023-02-03T14:06:57;12.93;;;1.93;;
37529;SDS011;23374;52.758;6.872;2023-02-03T14:09:38;8.97;;;1.80;;
37529;SDS011;23374;52.758;6.872;2023-02-03T14:13:50;18.00;;;2.83;;
37529;SDS011;23374;52.758;6.872;2023-02-03T14:16:24;20.07;;;2.83;;
37529;SDS011;23374;52.758;6.872;2023-02-03T14:18:45;11.23;;;2.80;;
37529;SDS011;23374;52.758;6.872;2023-02-03T14:21:13;25.03;;;3.37;;
37529;SDS011;23374;52.758;6.872;2023-02-03T14:23:43;14.00;;;3.03;;
37529;SDS011;23374;52.758;6.872;2023-02-03T14:26:18;12.43;;;2.03;;
37529;SDS011;23374;52.758;6.872;2023-02-03T14:28:42;14.53;;;3.37;;
37529;SDS011;23374;52.758;6.872;2023-02-03T14:31:10;16.63;;;2.90;;
37529;SDS011;23374;52.758;6.872;2023-02-03T14:34:02;14.53;;;3.13;;
37529;SDS011;23374;52.758;6.872;2023-02-03T14:36:46;14.20;;;2.57;;
37529;SDS011;23374;52.758;6.872;2023-02-03T14:40:47;17.13;;;3.03;;
37529;SDS011;23374;52.758;6.872;2023-02-03T14:57:51;13.83;;;2.43;;
37529;SDS011;23374;52.758;6.872;2023-02-03T15:00:29;8.97;;;1.47;;
37529;SDS011;23374;52.758;6.872;2023-02-03T15:03:16;14.20;;;2.10;;
37529;SDS011;23374;52.758;6.872;2023-02-03T15:05:43;10.20;;;2.20;;
37529;SDS011;23374;52.758;6.872;2023-02-03T15:17:58;6.03;;;1.90;;
37529;SDS011;23374;52.758;6.872;2023-02-03T15:20:39;12.97;;;2.60;;
37529;SDS011;23374;52.758;6.872;2023-02-03T15:23:01;15.93;;;2.00;;
37529;SDS011;23374;52.758;6.872;2023-02-03T15:25:22;11.80;;;2.47;;
37529;SDS011;23374;52.758;6.872;2023-02-03T15:27:44;17.23;;;2.13;;
37529;SDS011;23374;52.758;6.872;2023-02-03T15:30:23;13.13;;;2.40;;
37529;SDS011;23374;52.758;6.872;2023-02-03T15:32:52;17.43;;;2.87;;
37529;SDS011;23374;52.758;6.872;2023-02-03T15:35:21;14.50;;;1.50;;
37529;SDS011;23374;52.758;6.872;2023-02-03T15:37:47;5.50;;;1.27;;
37529;SDS011;23374;52.758;6.872;2023-02-03T15:40:19;8.27;;;1.47;;
37529;SDS011;23374;52.758;6.872;2023-02-03T15:43:11;8.57;;;2.03;;
37529;SDS011;23374;52.758;6.872;2023-02-03T15:46:59;12.60;;;1.90;;
37529;SDS011;23374;52.758;6.872;2023-02-03T15:49:32;14.30;;;1.70;;
37529;SDS011;23374;52.758;6.872;2023-02-03T15:52:11;15.10;;;2.43;;
37529;SDS011;23374;52.758;6.872;2023-02-03T15:54:46;11.70;;;1.60;;
37529;SDS011;23374;52.758;6.872;2023-02-03T15:57:20;4.40;;;1.33;;
37529;SDS011;23374;52.758;6.872;2023-02-03T15:59:54;11.13;;;2.23;;
37529;SDS011;23374;52.758;6.872;2023-02-03T16:02:33;8.43;;;1.37;;
37529;SDS011;23374;52.758;6.872;2023-02-03T16:05:04;6.10;;;1.83;;
37529;SDS011;23374;52.758;6.872;2023-02-03T16:07:40;10.00;;;1.60;;
37529;SDS011;23374;52.758;6.872;2023-02-03T16:10:01;11.40;;;1.70;;
37529;SDS011;23374;52.758;6.872;2023-02-03T16:12:29;10.00;;;1.93;;
37529;SDS011;23374;52.758;6.872;2023-02-03T16:14:54;7.33;;;1.93;;
37529;SDS011;23374;52.758;6.872;2023-02-03T16:17:34;10.90;;;1.60;;
37529;SDS011;23374;52.758;6.872;2023-02-03T16:20:18;11.63;;;1.90;;
37529;SDS011;23374;52.758;6.872;2023-02-03T16:22:46;9.00;;;1.87;;
37529;SDS011;23374;52.758;6.872;2023-02-03T16:25:41;12.37;;;2.53;;
37529;SDS011;23374;52.758;6.872;2023-02-03T16:28:35;10.20;;;1.73;;
37529;SDS011;23374;52.758;6.872;2023-02-03T16:31:15;10.20;;;1.73;;
37529;SDS011;23374;52.758;6.872;2023-02-03T16:33:59;17.43;;;2.17;;
37529;SDS011;23374;52.758;6.872;2023-02-03T16:37:00;15.13;;;2.00;;
37529;SDS011;23374;52.758;6.872;2023-02-03T16:39:48;8.17;;;1.43;;
37529;SDS011;23374;52.758;6.872;2023-02-03T16:42:36;9.13;;;2.10;;
37529;SDS011;23374;52.758;6.872;2023-02-03T16:45:17;12.23;;;2.10;;
37529;SDS011;23374;52.758;6.872;2023-02-03T16:47:56;15.03;;;2.07;;
37529;SDS011;23374;52.758;6.872;2023-02-03T16:50:35;13.80;;;2.33;;
37529;SDS011;23374;52.758;6.872;2023-02-03T16:53:19;10.73;;;1.80;;
37529;SDS011;23374;52.758;6.872;2023-02-03T16:55:42;11.17;;;1.63;;
37529;SDS011;23374;52.758;6.872;2023-02-03T16:58:03;8.40;;;2.10;;
37529;SDS011;23374;52.758;6.872;2023-02-03T17:00:23;10.13;;;1.50;;
37529;SDS011;23374;52.758;6.872;2023-02-03T17:02:43;10.40;;;1.80;;
37529;SDS011;23374;52.758;6.872;2023-02-03T17:05:04;11.77;;;1.77;;